Time;durP1;ratioP1;P1;durP2;ratioP2;P2;SDS_P1;SDS_P2;PMS_P1;PMS_P2;Temp;Humidity;BMP_temperature;BMP_pressure;BME280_temperature;BME280_humidity;BME280_pressure;Samples;Min_cycle;Max_cycle;Signal;HPM_P1;HPM_P2
2022/07/20 00:01:23;;;;;;;;;;;;;;;23.88;50.14;101380.38;4921270;29;4430;-66
2022/07/20 00:03:50;;;;;;;;;;;;;;;23.89;50.19;101381.13;4919407;29;4327;-66
2022/07/20 00:06:16;;;;;;;;;;;;;;;23.88;50.18;101373.88;4915414;29;5250;-65
2022/07/20 00:11:28;;;;;;;;;;;;;;;23.88;49.85;101385.44;4918043;29;4251;-66
2022/07/20 00:13:58;;;;;;;;;;;;;;;23.87;49.95;101378.16;4918605;29;4168;-66
2022/07/20 00:16:25;;;;;;;;;;;;;;;23.88;49.87;101382.53;4916868;29;4283;-65
2022/07/20 00:18:51;;;;;;;;;;;;;;;23.86;49.71;101383.19;4918711;29;4177;-66
2022/07/20 00:21:18;;;;;;;;;;;;;;;23.86;49.63;101388.25;4916651;29;4299;-65
2022/07/20 00:23:45;;;;;;;;;;;;;;;23.86;49.48;101386.09;4917935;29;5288;-65
2022/07/20 00:26:11;;;;;;;;;;;;;;;23.86;49.71;101383.19;4915441;29;4353;-65
2022/07/20 00:28:38;;;;;;;;;;;;;;;23.87;49.46;101383.94;4918312;29;4242;-65
2022/07/20 00:31:04;;;;;;;;;;;;;;;23.85;49.52;101380.97;4916435;29;5306;-66
2022/07/20 00:33:30;;;;;;;;;;;;;;;23.85;49.60;101380.97;4919405;29;4289;-65
2022/07/20 00:35:57;;;;;;;;;;;;;;;23.83;49.63;101379.47;4916302;29;4239;-65
2022/07/20 00:38:23;;;;;;;;;;;;;;;23.83;49.63;101376.59;4917016;29;4239;-65
2022/07/20 00:40:50;;;;;;;;;;;;;;;23.83;49.61;101376.59;4919960;29;4270;-65
2022/07/20 00:43:16;;;;;;;;;;;;;;;23.82;49.99;101377.25;4917691;29;4138;-65
2022/07/20 00:45:43;;;;;;;;;;;;;;;23.82;49.75;101377.25;4915484;29;4160;-65
2022/07/20 00:48:09;;;;;;;;;;;;;;;23.82;49.61;101371.47;4918108;29;4140;-65
2022/07/20 00:50:36;;;;;;;;;;;;;;;23.81;49.68;101359.16;4916376;29;4551;-66
2022/07/20 00:53:02;;;;;;;;;;;;;;;23.79;49.95;101361.97;4919236;29;4376;-65
2022/07/20 00:55:28;;;;;;;;;;;;;;;23.80;49.77;101360.56;4899800;29;4633;-65
2022/07/20 00:57:55;;;;;;;;;;;;;;;23.79;49.62;101349.66;4918773;29;4360;-66
2022/07/20 01:00:21;;;;;;;;;;;;;;;23.80;49.56;101345.34;4915664;29;4294;-66
2022/07/20 01:02:47;;;;;;;;;;;;;;;23.79;49.86;101361.97;4917326;29;4389;-65
2022/07/20 01:05:14;;;;;;;;;;;;;;;23.77;50.04;101353.19;4916974;29;5532;-65
2022/07/20 01:07:41;;;;;;;;;;;;;;;23.77;49.94;101341.63;4912414;29;4215;-65
2022/07/20 01:10:08;;;;;;;;;;;;;;;23.76;49.71;101340.16;4905929;29;5235;-65
2022/07/20 01:12:34;;;;;;;;;;;;;;;23.76;50.15;101345.19;4917164;29;4272;-66
2022/07/20 01:15:00;;;;;;;;;;;;;;;23.74;50.20;101342.97;4903850;29;4347;-65
2022/07/20 01:17:27;;;;;;;;;;;;;;;23.74;50.16;101342.97;4912133;29;4308;-65
2022/07/20 01:19:53;;;;;;;;;;;;;;;23.73;49.97;101347.25;4912053;29;4269;-66
2022/07/20 01:22:19;;;;;;;;;;;;;;;23.73;50.13;101344.34;4915108;29;4116;-66
2022/07/20 01:24:46;;;;;;;;;;;;;;;23.73;50.30;101344.34;4914096;29;4278;-65
2022/07/20 01:27:12;;;;;;;;;;;;;;;23.70;50.36;101339.88;4901019;29;5250;-65
2022/07/20 01:29:39;;;;;;;;;;;;;;;23.71;50.10;101341.38;4910981;29;5396;-65
2022/07/20 01:32:05;;;;;;;;;;;;;;;23.70;50.40;101342.03;4914159;29;4577;-65
2022/07/20 01:34:31;;;;;;;;;;;;;;;23.70;50.52;101347.81;4917222;29;5900;-66
2022/07/20 01:36:58;;;;;;;;;;;;;;;23.70;50.42;101348.56;4911699;29;4600;-66
2022/07/20 01:39:24;;;;;;;;;;;;;;;23.69;50.15;101347.06;4913382;29;4121;-65
2022/07/20 01:41:53;;;;;;;;;;;;;;;23.68;50.39;101345.56;4914432;29;4295;-67
2022/07/20 01:44:21;;;;;;;;;;;;;;;23.68;49.92;101347.72;4914610;29;5532;-66
2022/07/20 01:46:48;;;;;;;;;;;;;;;23.68;50.08;101347.72;4913930;29;4301;-66
2022/07/20 01:49:15;;;;;;;;;;;;;;;23.68;50.35;101347.72;4915010;29;5556;-66
2022/07/20 01:51:42;;;;;;;;;;;;;;;23.66;50.30;101341.88;4920535;29;4241;-66
2022/07/20 01:54:08;;;;;;;;;;;;;;;23.67;50.44;101344.09;4919816;29;4220;-66
2022/07/20 01:56:34;;;;;;;;;;;;;;;23.67;50.32;101349.88;4921021;29;4238;-66
2022/07/20 01:59:01;;;;;;;;;;;;;;;23.64;50.33;101342.53;4920243;29;5394;-66
2022/07/20 02:01:27;;;;;;;;;;;;;;;23.63;50.46;101352.59;4922008;29;5413;-66
2022/07/20 02:03:54;;;;;;;;;;;;;;;23.63;50.48;101349.72;4919565;29;5272;-66
2022/07/20 02:06:20;;;;;;;;;;;;;;;23.61;50.22;101338.06;4920622;29;4239;-66
2022/07/20 02:08:47;;;;;;;;;;;;;;;23.62;50.41;101337.41;4919409;29;4257;-66
2022/07/20 02:11:14;;;;;;;;;;;;;;;23.61;50.51;101341.69;4916545;29;4261;-66
2022/07/20 02:13:40;;;;;;;;;;;;;;;23.60;50.45;101328.66;4922104;29;4265;-66
2022/07/20 02:16:15;;;;;;;;;;;;;;;23.61;50.35;101329.38;4918941;29;5430;-66
2022/07/20 02:18:45;;;;;;;;;;;;;;;23.61;50.57;101338.78;4919929;29;4044;-66
2022/07/20 02:21:13;;;;;;;;;;;;;;;23.61;50.60;101335.91;4921810;29;5519;-66
2022/07/20 02:23:39;;;;;;;;;;;;;;;23.59;50.33;101337.97;4920020;29;6837;-66
2022/07/20 02:26:06;;;;;;;;;;;;;;;23.60;50.28;101339.47;4920924;29;5513;-67
2022/07/20 02:28:32;;;;;;;;;;;;;;;23.59;50.67;101332.19;4920448;29;4324;-66
2022/07/20 02:30:58;;;;;;;;;;;;;;;23.58;50.67;101337.25;4919963;29;4212;-66
2022/07/20 02:33:25;;;;;;;;;;;;;;;23.57;50.75;101335.75;4920295;29;4680;-66
2022/07/20 02:35:51;;;;;;;;;;;;;;;23.58;50.67;101325.69;4921073;29;4395;-68
2022/07/20 02:38:18;;;;;;;;;;;;;;;23.59;50.66;101332.97;4920289;29;5570;-66
2022/07/20 02:40:44;;;;;;;;;;;;;;;23.59;50.67;101327.19;4910082;29;4315;-67
2022/07/20 02:43:11;;;;;;;;;;;;;;;23.59;50.54;101326.41;4921146;29;4118;-66
2022/07/20 02:45:37;;;;;;;;;;;;;;;23.56;50.89;101327.75;4915855;29;4190;-66
2022/07/20 02:48:04;;;;;;;;;;;;;;;23.58;50.43;101330.72;4918590;29;4350;-66
2022/07/20 02:50:33;;;;;;;;;;;;;;;23.58;50.17;101319.16;4919432;29;5308;-66
2022/07/20 02:52:59;;;;;;;;;;;;;;;23.55;50.67;101321.22;4921484;29;5275;-65
2022/07/20 02:55:26;;;;;;;;;;;;;;;23.56;50.29;101316.91;4920852;29;4254;-67
2022/07/20 02:57:52;;;;;;;;;;;;;;;23.56;50.35;101310.41;4916173;29;4512;-67
2022/07/20 03:00:19;;;;;;;;;;;;;;;23.53;50.35;101317.50;4921543;29;5313;-67
2022/07/20 03:02:46;;;;;;;;;;;;;;;23.52;50.60;101325.41;4921063;29;5949;-66
2022/07/20 03:05:13;;;;;;;;;;;;;;;23.51;50.77;101323.22;4917966;29;4376;-67
2022/07/20 03:07:39;;;;;;;;;;;;;;;23.54;50.81;101319.00;4916466;29;4293;-66
2022/07/20 03:10:05;;;;;;;;;;;;;;;23.55;50.56;101326.28;4919907;29;4277;-67
2022/07/20 03:12:32;;;;;;;;;;;;;;;23.54;50.45;101313.22;4919134;29;4281;-66
2022/07/20 03:14:58;;;;;;;;;;;;;;;23.53;50.40;101314.63;4920866;29;5603;-67
2022/07/20 03:17:25;;;;;;;;;;;;;;;23.53;50.38;101317.50;4919602;29;4549;-67
2022/07/20 03:19:51;;;;;;;;;;;;;;;23.53;50.23;101312.47;4921048;29;4383;-67
2022/07/20 03:22:17;;;;;;;;;;;;;;;23.52;50.26;101328.31;4920689;29;4288;-66
2022/07/20 03:24:44;;;;;;;;;;;;;;;23.53;49.96;101323.28;4920568;29;4150;-66
2022/07/20 03:27:10;;;;;;;;;;;;;;;23.53;50.04;101329.06;4916907;29;4200;-67
2022/07/20 03:29:36;;;;;;;;;;;;;;;23.51;50.17;101326.84;4917560;29;4105;-68
2022/07/20 03:32:03;;;;;;;;;;;;;;;23.51;50.10;101323.22;4918914;29;4378;-67
2022/07/20 03:34:29;;;;;;;;;;;;;;;23.46;50.05;101333.13;4915927;29;5445;-67
2022/07/20 03:36:56;;;;;;;;;;;;;;;23.48;50.30;101331.06;4911173;29;4222;-66
2022/07/20 03:39:22;;;;;;;;;;;;;;;23.48;50.21;101331.06;4919376;29;4267;-67
2022/07/20 03:41:49;;;;;;;;;;;;;;;23.46;50.63;101341.78;4917736;29;4270;-67
2022/07/20 03:44:15;;;;;;;;;;;;;;;23.45;50.45;101341.03;4916638;29;5300;-67
2022/07/20 03:46:42;;;;;;;;;;;;;;;23.43;50.52;101332.28;4918891;29;4304;-67
2022/07/20 03:49:08;;;;;;;;;;;;;;;23.44;50.63;101338.81;4917443;29;4266;-67
2022/07/20 03:51:38;;;;;;;;;;;;;;;23.42;50.76;101337.31;4917494;29;4227;-67
2022/07/20 03:54:05;;;;;;;;;;;;;;;23.44;50.82;101344.59;4918482;29;4234;-66
2022/07/20 03:56:33;;;;;;;;;;;;;;;23.43;50.95;101343.84;4920160;29;4317;-66
2022/07/20 03:58:59;;;;;;;;;;;;;;;23.41;50.77;101353.19;4919641;29;5257;-66
2022/07/20 04:01:26;;;;;;;;;;;;;;;23.41;51.40;101353.19;4920217;29;4268;-66
2022/07/20 04:03:52;;;;;;;;;;;;;;;23.41;51.17;101346.66;4919656;29;5374;-66
2022/07/20 04:06:19;;;;;;;;;;;;;;;23.39;51.27;101350.22;4920612;29;4301;-67
2022/07/20 04:08:48;;;;;;;;;;;;;;;23.40;51.38;101351.69;4919219;29;4463;-67
2022/07/20 04:11:15;;;;;;;;;;;;;;;23.41;51.04;101352.44;4913142;29;4236;-67
2022/07/20 04:13:41;;;;;;;;;;;;;;;23.40;50.99;101351.69;4919336;29;4180;-66
2022/07/20 04:16:07;;;;;;;;;;;;;;;23.39;50.68;101361.03;4913769;29;4185;-65
2022/07/20 04:18:34;;;;;;;;;;;;;;;23.33;51.10;101352.84;4918652;29;4391;-65
2022/07/20 04:21:00;;;;;;;;;;;;;;;23.34;50.87;101357.22;4919552;29;5277;-66
2022/07/20 04:23:27;;;;;;;;;;;;;;;23.35;50.82;101358.69;4920706;29;4347;-67
2022/07/20 04:25:53;;;;;;;;;;;;;;;23.34;50.86;101359.34;4917374;29;5144;-66
2022/07/20 04:28:19;;;;;;;;;;;;;;;23.37;50.46;101353.00;4921041;29;4263;-67
2022/07/20 04:30:46;;;;;;;;;;;;;;;23.38;50.83;101362.41;4920439;29;4291;-66
2022/07/20 04:33:12;;;;;;;;;;;;;;;23.33;50.75;101361.50;4917835;29;4203;-61
2022/07/20 04:35:39;;;;;;;;;;;;;;;23.23;50.22;101366.88;4918351;29;4231;-62
2022/07/20 04:38:05;;;;;;;;;;;;;;;23.05;50.92;101374.75;4914374;29;4213;-59
2022/07/20 04:40:31;;;;;;;;;;;;;;;23.13;50.89;101366.41;4913278;29;4293;-63
2022/07/20 04:43:02;;;;;;;;;;;;;;;23.04;51.41;101370.34;4918930;29;5528;-65
2022/07/20 04:45:28;;;;;;;;;;;;;;;23.05;50.88;101369.72;4916092;29;5293;-63
2022/07/20 04:47:55;;;;;;;;;;;;;;;23.04;51.33;101368.19;4917166;29;4237;-63
2022/07/20 04:50:22;;;;;;;;;;;;;;;23.04;52.10;101368.19;4914877;29;4298;-66
2022/07/20 04:52:48;;;;;;;;;;;;;;;23.18;51.57;101365.19;4908685;29;4312;-65
2022/07/20 04:55:14;;;;;;;;;;;;;;;23.24;51.66;101362.56;4913074;29;4216;-63
2022/07/20 04:57:41;;;;;;;;;;;;;;;23.28;51.48;101365.63;4912475;29;4111;-63
2022/07/20 05:00:07;;;;;;;;;;;;;;;23.32;51.00;101362.16;4917231;29;6404;-63
2022/07/20 05:02:34;;;;;;;;;;;;;;;23.34;51.02;101363.00;4920083;29;4228;-63
2022/07/20 05:05:00;;;;;;;;;;;;;;;23.37;50.99;101361.69;4919348;29;4518;-63
2022/07/20 05:07:27;;;;;;;;;;;;;;;23.37;50.95;101361.69;4917795;29;4253;-63
2022/07/20 05:09:53;;;;;;;;;;;;;;;23.39;51.38;101363.91;4918727;29;4249;-63
2022/07/20 05:12:19;;;;;;;;;;;;;;;23.39;51.19;101358.88;4920345;29;4250;-63
2022/07/20 05:14:46;;;;;;;;;;;;;;;23.41;51.17;101370.53;4920401;29;5279;-63
2022/07/20 05:17:12;;;;;;;;;;;;;;;23.41;51.28;101364.75;4920351;29;4242;-63
2022/07/20 05:19:38;;;;;;;;;;;;;;;23.42;51.55;101369.09;4920306;29;4251;-63
2022/07/20 05:22:05;;;;;;;;;;;;;;;23.44;51.45;101370.63;4919008;29;5296;-63
2022/07/20 05:24:31;;;;;;;;;;;;;;;23.44;51.32;101368.47;4924194;29;4181;-63
2022/07/20 05:26:57;;;;;;;;;;;;;;;23.45;51.48;101369.19;4906698;29;4255;-63
2022/07/20 05:29:24;;;;;;;;;;;;;;;23.44;51.40;101373.50;4920793;29;4253;-63
2022/07/20 05:31:50;;;;;;;;;;;;;;;23.46;51.41;101370.69;4923337;29;4175;-63
2022/07/20 05:34:16;;;;;;;;;;;;;;;23.46;51.44;101365.66;4924726;29;4197;-63
2022/07/20 05:36:43;;;;;;;;;;;;;;;23.47;51.78;101364.25;4923142;29;4343;-63
2022/07/20 05:39:09;;;;;;;;;;;;;;;23.47;51.60;101360.63;4921081;29;4214;-63
2022/07/20 05:41:37;;;;;;;;;;;;;;;23.48;51.81;101362.84;4923122;29;5370;-63
2022/07/20 05:44:03;;;;;;;;;;;;;;;23.49;51.78;101372.25;4922375;29;4255;-63
2022/07/20 05:46:30;;;;;;;;;;;;;;;23.47;51.74;101367.13;4921422;29;4247;-63
2022/07/20 05:48:56;;;;;;;;;;;;;;;23.50;51.98;101365.06;4919603;29;5339;-63
2022/07/20 05:51:23;;;;;;;;;;;;;;;23.49;51.87;101367.22;4923484;29;4395;-63
2022/07/20 05:53:57;;;;;;;;;;;;;;;23.50;52.03;101370.84;4922197;29;5531;-63
2022/07/20 05:56:23;;;;;;;;;;;;;;;23.50;52.00;101371.63;4922912;29;5295;-63
2022/07/20 05:58:50;;;;;;;;;;;;;;;23.50;51.97;101370.84;4920936;29;4291;-63
2022/07/20 06:01:17;;;;;;;;;;;;;;;23.50;51.99;101371.63;4920155;29;4198;-63
2022/07/20 06:03:43;;;;;;;;;;;;;;;23.51;52.38;101378.88;4921438;29;5323;-63
2022/07/20 06:06:14;;;;;;;;;;;;;;;23.51;52.37;101370.19;4922435;29;4166;-63
2022/07/20 06:08:40;;;;;;;;;;;;;;;23.52;52.14;101365.16;4921423;29;4256;-63
2022/07/20 06:11:26;;;;;;;;;;;;;;;23.52;52.21;101368.03;4920863;29;4256;-63
2022/07/20 06:13:53;;;;;;;;;;;;;;;23.52;52.35;101370.94;4921606;29;4249;-63
2022/07/20 06:16:19;;;;;;;;;;;;;;;23.53;52.28;101366.66;4922770;29;4285;-63
2022/07/20 06:18:46;;;;;;;;;;;;;;;23.53;52.28;101372.44;4922372;29;4216;-63
2022/07/20 06:21:14;;;;;;;;;;;;;;;23.54;52.59;101371.03;4921995;29;4294;-63
2022/07/20 06:23:41;;;;;;;;;;;;;;;23.54;52.34;101368.13;4922228;29;4231;-63
2022/07/20 06:26:07;;;;;;;;;;;;;;;23.54;52.53;101371.03;4920638;29;4442;-63
2022/07/20 06:28:33;;;;;;;;;;;;;;;23.54;52.42;101377.53;4922395;29;5416;-63
2022/07/20 06:31:00;;;;;;;;;;;;;;;23.53;52.78;101381.84;4921665;29;4184;-63
2022/07/20 06:33:26;;;;;;;;;;;;;;;23.54;52.68;101389.09;4921138;29;5347;-63
2022/07/20 06:35:53;;;;;;;;;;;;;;;23.55;52.43;101395.66;4918826;29;4188;-63
2022/07/20 06:38:19;;;;;;;;;;;;;;;23.55;52.46;101401.44;4921992;29;4165;-63
2022/07/20 06:40:45;;;;;;;;;;;;;;;23.55;52.65;101398.53;4920490;29;5392;-63
2022/07/20 06:43:12;;;;;;;;;;;;;;;23.56;52.41;101405.78;4922143;29;4173;-63
2022/07/20 06:45:38;;;;;;;;;;;;;;;23.55;52.80;101405.06;4921911;29;4302;-63
2022/07/20 06:48:05;;;;;;;;;;;;;;;23.57;52.59;101415.94;4920034;29;5249;-63
2022/07/20 06:50:31;;;;;;;;;;;;;;;23.57;52.85;101404.38;4922086;29;4132;-63
2022/07/20 06:52:57;;;;;;;;;;;;;;;23.56;52.91;101409.44;4919074;29;4331;-63
2022/07/20 06:55:24;;;;;;;;;;;;;;;23.57;52.80;101415.94;4920422;29;4976;-63
2022/07/20 06:57:50;;;;;;;;;;;;;;;23.58;52.78;101417.44;4921482;29;4274;-63
2022/07/20 07:00:17;;;;;;;;;;;;;;;23.58;52.75;101414.56;4919608;29;4477;-63
2022/07/20 07:02:43;;;;;;;;;;;;;;;23.58;52.75;101406.63;4920407;29;4260;-63
2022/07/20 07:05:10;;;;;;;;;;;;;;;23.58;52.84;101400.09;4918848;29;4245;-63
2022/07/20 07:07:36;;;;;;;;;;;;;;;23.58;52.67;101394.31;4921476;29;4332;-63
2022/07/20 07:10:03;;;;;;;;;;;;;;;23.58;52.96;101400.84;4921589;29;4213;-63
2022/07/20 07:12:29;;;;;;;;;;;;;;;23.59;52.64;101395.78;4920744;29;4211;-62
2022/07/20 07:14:56;;;;;;;;;;;;;;;23.59;52.84;101392.91;4920564;29;4223;-63
2022/07/20 07:17:22;;;;;;;;;;;;;;;23.59;52.84;101392.91;4921598;29;4502;-63
2022/07/20 07:19:49;;;;;;;;;;;;;;;23.60;52.95;101397.31;4922053;29;4378;-63
2022/07/20 07:22:15;;;;;;;;;;;;;;;23.60;52.89;101397.31;4921446;29;4081;-63
2022/07/20 07:24:41;;;;;;;;;;;;;;;23.60;52.88;101391.50;4920224;29;4277;-63
2022/07/20 07:27:08;;;;;;;;;;;;;;;23.61;52.87;101393.00;4918005;29;4170;-63
2022/07/20 07:29:35;;;;;;;;;;;;;;;23.60;52.85;101392.25;4919267;29;4456;-62
2022/07/20 07:32:05;;;;;;;;;;;;;;;23.60;52.79;101403.81;4920035;29;4547;-63
2022/07/20 07:34:32;;;;;;;;;;;;;;;23.60;52.58;101391.50;4920943;29;4313;-63
2022/07/20 07:36:58;;;;;;;;;;;;;;;23.61;52.79;101393.00;4916648;29;4180;-63
2022/07/20 07:39:25;;;;;;;;;;;;;;;23.61;52.63;101399.50;4920339;29;4254;-62
2022/07/20 07:41:51;;;;;;;;;;;;;;;23.61;52.59;101399.50;4920441;29;4256;-65
2022/07/20 07:44:17;;;;;;;;;;;;;;;23.62;52.57;101400.28;4921049;29;4269;-63
2022/07/20 07:46:44;;;;;;;;;;;;;;;23.62;52.50;101397.38;4919596;29;4233;-63
2022/07/20 07:49:10;;;;;;;;;;;;;;;23.62;52.77;101394.50;4917556;29;4225;-63
2022/07/20 07:51:37;;;;;;;;;;;;;;;23.62;52.67;101391.59;4921339;29;4254;-63
2022/07/20 07:54:03;;;;;;;;;;;;;;;23.62;52.44;101389.44;4918322;29;5277;-63
2022/07/20 07:56:30;;;;;;;;;;;;;;;23.62;52.77;101391.59;4920961;29;4160;-63
2022/07/20 07:58:56;;;;;;;;;;;;;;;23.63;52.84;101390.19;4921623;29;4264;-64
2022/07/20 08:01:42;;;;;;;;;;;;;;;23.63;52.60;101393.81;4922199;29;4382;-63
2022/07/20 08:04:09;;;;;;;;;;;;;;;23.63;52.87;101390.19;4921185;29;4260;-63
2022/07/20 08:06:36;;;;;;;;;;;;;;;23.63;52.71;101390.94;4920992;29;4244;-63
2022/07/20 08:09:03;;;;;;;;;;;;;;;23.63;52.81;101396.72;4920580;29;5340;-63
2022/07/20 08:11:30;;;;;;;;;;;;;;;23.63;52.90;101402.50;4921385;29;4296;-63
2022/07/20 08:13:56;;;;;;;;;;;;;;;23.64;53.02;101391.69;4921339;29;4253;-63
2022/07/20 08:16:22;;;;;;;;;;;;;;;23.64;52.95;101394.59;4920908;29;4382;-63
2022/07/20 08:18:49;;;;;;;;;;;;;;;23.65;52.86;101404.72;4921107;29;4151;-63
2022/07/20 08:21:16;;;;;;;;;;;;;;;23.66;52.72;101399.69;4920889;29;4278;-62
2022/07/20 08:23:42;;;;;;;;;;;;;;;23.64;52.90;101409.03;4920447;29;4357;-63
2022/07/20 08:26:09;;;;;;;;;;;;;;;23.66;52.84;101411.25;4921107;29;4169;-62
2022/07/20 08:28:35;;;;;;;;;;;;;;;23.66;52.96;101399.69;4921522;29;4095;-63
2022/07/20 08:31:02;;;;;;;;;;;;;;;23.66;52.77;101388.84;4919674;29;5286;-63
2022/07/20 08:33:28;;;;;;;;;;;;;;;23.65;53.28;101398.94;4921023;29;4288;-63
2022/07/20 08:35:54;;;;;;;;;;;;;;;23.66;52.69;101397.53;4921292;29;4545;-63
2022/07/20 08:38:21;;;;;;;;;;;;;;;23.66;52.75;101397.53;4921099;29;5337;-63
2022/07/20 08:40:48;;;;;;;;;;;;;;;23.67;53.15;101389.63;4920290;29;4214;-63
2022/07/20 08:43:16;;;;;;;;;;;;;;;23.67;52.98;101398.28;4918651;29;4171;-63
2022/07/20 08:45:42;;;;;;;;;;;;;;;23.66;53.29;101394.63;4920584;29;4166;-63
2022/07/20 08:48:11;;;;;;;;;;;;;;;23.66;53.28;101388.84;4918748;29;4481;-63
2022/07/20 08:50:37;;;;;;;;;;;;;;;23.67;53.19;101390.38;4920610;29;4282;-63
2022/07/20 08:53:03;;;;;;;;;;;;;;;23.67;53.27;101389.63;4919905;29;4395;-63
2022/07/20 08:55:30;;;;;;;;;;;;;;;23.68;53.31;101380.28;4920570;29;4175;-62
2022/07/20 08:57:56;;;;;;;;;;;;;;;23.67;53.30;101384.56;4919956;29;4236;-63
2022/07/20 09:00:23;;;;;;;;;;;;;;;23.67;53.06;101373.00;4920656;29;4058;-62
2022/07/20 09:02:49;;;;;;;;;;;;;;;23.68;53.32;101380.28;4920051;29;4228;-62
2022/07/20 09:05:16;;;;;;;;;;;;;;;23.69;53.13;101378.16;4919839;29;4261;-63
2022/07/20 09:07:43;;;;;;;;;;;;;;;23.68;53.16;101380.28;4919952;29;5405;-62
2022/07/20 09:10:10;;;;;;;;;;;;;;;23.68;53.34;101377.38;4920038;29;5421;-63
2022/07/20 09:12:50;;;;;;;;;;;;;;;23.69;53.20;101378.88;4920058;29;4280;-63
2022/07/20 09:15:25;;;;;;;;;;;;;;;23.69;53.36;101378.16;4920675;29;4335;-62
2022/07/20 09:18:02;;;;;;;;;;;;;;;23.68;53.30;101377.38;4919946;29;4237;-64
2022/07/20 09:20:29;;;;;;;;;;;;;;;23.70;53.40;101368.06;4921133;29;4547;-63
2022/07/20 09:22:59;;;;;;;;;;;;;;;23.70;53.19;101377.47;4917082;29;4186;-64
2022/07/20 09:25:25;;;;;;;;;;;;;;;23.69;53.33;101376.00;4920940;29;5327;-63
2022/07/20 09:27:52;;;;;;;;;;;;;;;23.69;53.37;101376.00;4921301;29;5312;-62
2022/07/20 09:30:18;;;;;;;;;;;;;;;23.69;53.45;101376.00;4920893;29;5588;-63
2022/07/20 09:33:03;;;;;;;;;;;;;;;23.69;53.46;101370.22;4920539;29;4208;-62
2022/07/20 09:35:30;;;;;;;;;;;;;;;23.71;53.46;101372.41;4920458;29;4186;-63
2022/07/20 09:37:57;;;;;;;;;;;;;;;23.72;53.18;101368.88;4920102;29;5306;-63
2022/07/20 09:40:24;;;;;;;;;;;;;;;23.71;53.46;101364.50;4920062;29;4329;-62
2022/07/20 09:42:50;;;;;;;;;;;;;;;23.72;53.09;101363.09;4919022;29;4268;-62
2022/07/20 09:45:20;;;;;;;;;;;;;;;23.72;53.27;101356.56;4919185;29;4319;-62
2022/07/20 09:48:07;;;;;;;;;;;;;;;23.73;52.87;101364.59;4920017;29;4167;-63
2022/07/20 09:50:34;;;;;;;;;;;;;;;23.73;53.38;101364.59;4920451;29;4161;-62
2022/07/20 09:53:01;;;;;;;;;;;;;;;23.74;53.50;101365.34;4919507;29;5412;-64
2022/07/20 09:55:27;;;;;;;;;;;;;;;23.74;53.35;101353.75;4920302;29;4166;-63
2022/07/20 09:57:54;;;;;;;;;;;;;;;23.74;53.74;101356.66;4920503;29;5459;-63
2022/07/20 10:00:20;;;;;;;;;;;;;;;23.74;53.29;101353.75;4918455;29;4177;-63
2022/07/20 10:02:47;;;;;;;;;;;;;;;23.75;53.72;101355.28;4920290;29;4414;-63
2022/07/20 10:05:14;;;;;;;;;;;;;;;23.76;53.46;101354.63;4919762;29;4383;-58
2022/07/20 10:07:41;;;;;;;;;;;;;;;23.76;53.90;101348.84;4901963;29;5566;-63
2022/07/20 10:10:08;;;;;;;;;;;;;;;23.77;53.87;101347.41;4902137;29;4381;-62
2022/07/20 10:12:34;;;;;;;;;;;;;;;23.76;53.91;101351.72;4908037;29;4314;-63
2022/07/20 10:15:00;;;;;;;;;;;;;;;23.78;54.01;101333.72;4922906;29;5502;-63
2022/07/20 10:17:29;;;;;;;;;;;;;;;23.78;53.66;101342.41;4921149;29;5267;-62
2022/07/20 10:19:55;;;;;;;;;;;;;;;23.78;53.96;101343.13;4919376;29;4205;-62
2022/07/20 10:22:22;;;;;;;;;;;;;;;23.78;53.91;101337.34;4921704;29;4259;-62
2022/07/20 10:25:08;;;;;;;;;;;;;;;23.78;53.97;101337.34;4919796;29;4106;-63
2022/07/20 10:27:38;;;;;;;;;;;;;;;23.79;53.97;101338.81;4923292;29;5249;-63
2022/07/20 10:30:14;;;;;;;;;;;;;;;23.81;54.16;101329.50;4918799;29;5515;-62
2022/07/20 10:32:48;;;;;;;;;;;;;;;23.81;54.22;101324.44;4921900;29;5330;-62
2022/07/20 10:35:24;;;;;;;;;;;;;;;23.82;54.19;101331.72;4921299;29;4202;-62
2022/07/20 10:37:51;;;;;;;;;;;;;;;23.82;54.35;101331.72;4919881;29;4329;-62
2022/07/20 10:40:19;;;;;;;;;;;;;;;23.83;54.38;101329.56;4920845;29;4115;-62
2022/07/20 10:42:46;;;;;;;;;;;;;;;23.81;54.40;101330.22;4920259;29;4291;-62
2022/07/20 10:45:23;;;;;;;;;;;;;;;23.83;54.25;101324.53;4918673;29;4239;-62
2022/07/20 10:47:49;;;;;;;;;;;;;;;23.83;54.23;101315.84;4922879;29;4265;-61
2022/07/20 10:50:28;;;;;;;;;;;;;;;23.82;54.43;101308.59;4921490;29;4374;-62
2022/07/20 10:52:56;;;;;;;;;;;;;;;23.85;54.56;101305.78;4919773;29;4230;-62
2022/07/20 10:55:34;;;;;;;;;;;;;;;23.85;54.68;101314.47;4917872;29;4246;-62
2022/07/20 10:58:01;;;;;;;;;;;;;;;23.83;54.82;101310.06;4919961;29;5354;-61
2022/07/20 11:00:31;;;;;;;;;;;;;;;23.86;54.46;101310.16;4918903;29;4282;-61
2022/07/20 11:02:58;;;;;;;;;;;;;;;23.86;54.88;101313.78;4922414;29;4170;-62
2022/07/20 11:05:24;;;;;;;;;;;;;;;23.86;54.83;101304.38;4921650;29;4027;-62
2022/07/20 11:07:52;;;;;;;;;;;;;;;23.86;54.81;101308.00;4918961;29;4151;-62
2022/07/20 11:10:25;;;;;;;;;;;;;;;23.87;54.91;101306.59;4919753;29;4278;-62
2022/07/20 11:12:58;;;;;;;;;;;;;;;23.87;54.98;101302.94;4919967;29;4330;-63
2022/07/20 11:15:44;;;;;;;;;;;;;;;23.88;54.88;101298.66;4921781;29;5260;-62
2022/07/20 11:18:11;;;;;;;;;;;;;;;23.88;54.85;101298.66;4920548;29;4326;-62
2022/07/20 11:20:44;;;;;;;;;;;;;;;23.89;55.22;101294.34;4919899;29;4247;-61
2022/07/20 11:23:13;;;;;;;;;;;;;;;23.90;55.11;101301.63;4919176;29;4218;-62
2022/07/20 11:25:46;;;;;;;;;;;;;;;23.90;55.18;101295.84;4918999;29;5301;-61
2022/07/20 11:28:12;;;;;;;;;;;;;;;23.90;55.18;101296.59;4917416;29;5161;-62
2022/07/20 11:30:39;;;;;;;;;;;;;;;23.90;55.20;101296.59;4918573;29;5331;-61
2022/07/20 11:33:05;;;;;;;;;;;;;;;23.91;55.20;101294.44;4920362;29;4201;-62
2022/07/20 11:35:32;;;;;;;;;;;;;;;23.92;55.19;101284.38;4921333;29;4229;-61
2022/07/20 11:37:58;;;;;;;;;;;;;;;23.92;55.14;101281.47;4921499;29;5409;-61
2022/07/20 11:40:24;;;;;;;;;;;;;;;23.93;55.48;101282.94;4909194;29;4347;-61
2022/07/20 11:43:10;;;;;;;;;;;;;;;23.92;55.40;101281.47;4921567;29;4275;-62
2022/07/20 11:45:36;;;;;;;;;;;;;;;23.94;55.48;101285.19;4918548;29;5524;-62
2022/07/20 11:48:23;;;;;;;;;;;;;;;23.94;55.49;101278.66;4918825;29;5373;-62
2022/07/20 11:51:09;;;;;;;;;;;;;;;23.94;55.39;101272.88;4919666;29;4102;-62
2022/07/20 11:53:36;;;;;;;;;;;;;;;23.95;55.50;101277.25;4919603;29;4207;-62
2022/07/20 11:56:04;;;;;;;;;;;;;;;23.95;55.26;101271.47;4921603;29;4224;-62
2022/07/20 11:58:31;;;;;;;;;;;;;;;23.96;55.36;101270.03;4919856;29;4254;-61
2022/07/20 12:00:58;;;;;;;;;;;;;;;23.97;55.31;101268.66;4919294;29;4241;-61
2022/07/20 12:03:26;;;;;;;;;;;;;;;23.96;55.35;101275.81;4921202;29;4264;-61
2022/07/20 12:05:53;;;;;;;;;;;;;;;23.97;55.17;101262.84;4916755;29;4246;-63
2022/07/20 12:08:19;;;;;;;;;;;;;;;23.97;55.61;101271.53;4919071;29;5454;-62
2022/07/20 12:10:46;;;;;;;;;;;;;;;23.97;55.36;101265.75;4920974;29;4213;-61
2022/07/20 12:13:13;;;;;;;;;;;;;;;23.99;55.30;101268.72;4919172;29;4215;-61
2022/07/20 12:15:49;;;;;;;;;;;;;;;23.98;55.46;101267.22;4916251;29;4278;-61
2022/07/20 12:18:30;;;;;;;;;;;;;;;23.99;55.45;101257.88;4899852;29;5289;-62
2022/07/20 12:21:04;;;;;;;;;;;;;;;23.99;55.46;101252.09;4921715;29;4253;-62
2022/07/20 12:23:31;;;;;;;;;;;;;;;24.00;55.39;101252.84;4920122;29;6364;-62
2022/07/20 12:25:57;;;;;;;;;;;;;;;24.00;55.51;101255.72;4917279;29;4236;-62
2022/07/20 12:28:35;;;;;;;;;;;;;;;24.01;55.39;101249.28;4918266;29;4334;-62
2022/07/20 12:31:21;;;;;;;;;;;;;;;24.01;55.47;101242.78;4918574;29;5310;-62
2022/07/20 12:34:07;;;;;;;;;;;;;;;24.03;55.59;101245.75;4919586;29;5577;-62
2022/07/20 12:36:34;;;;;;;;;;;;;;;24.06;55.44;101243.66;4919285;29;5468;-62
2022/07/20 12:39:01;;;;;;;;;;;;;;;24.05;55.68;101237.13;4918957;29;4409;-62
2022/07/20 12:41:27;;;;;;;;;;;;;;;24.04;55.62;101247.94;4918328;29;4223;-62
2022/07/20 12:44:26;;;;;;;;;;;;;;;24.04;55.61;101247.22;4919327;29;5534;-62
2022/07/20 12:46:53;;;;;;;;;;;;;;;24.04;55.50;101235.66;4918150;29;4271;-62
2022/07/20 12:49:23;;;;;;;;;;;;;;;24.06;55.67;101227.03;4918965;29;4256;-61
2022/07/20 12:51:49;;;;;;;;;;;;;;;24.07;55.43;101222.00;4920356;29;4288;-62
2022/07/20 12:54:16;;;;;;;;;;;;;;;24.05;55.83;101219.75;4920665;29;4234;-62